Funafuti, Tuvalu
Current Conditions -  °F | °C
As of 1:00 PM on Friday 28 Nov 2014 (Local Time) from NGFU Reporting Station
Scattered Clouds Scattered Clouds  
Wind Chill: 90°   Ceiling: Unl
Heat Index: 105°   Visibility: 6mi
Dew Point: 79°   Wind: 7mph
Humidity: 70%   Direction: 30°NNE
Pressure: 29.68"   Gusts: NA
Location:  8.52°S, 179.19°E
Report Text: NGFU 280100Z 03006KT 9999 FEW020 SCT110 32/26 Q1005
Loading
Personal Weather Stations






























Interactive Weather Map New forecast layout! Learn more

10-Day Weather Forecast

Advertisements
Track Severe Weather on mobile